Terminal Aerodrome Forecast
Issued by NWS

Home | Current Version | Previous Version | Text Only | Print | Product List | Glossary On
Versions: 1 2 3 4 5 6 7 8 9 10 11 12 13 14 15 16
340
FTUS45 KABQ 262352 CCA
TAFSAF
TAF COR
KSAF 262352Z 2700/2724 28018G28KT P6SM BKN150
     FM270200 32008KT P6SM SCT060 BKN120
     FM270900 29011KT P6SM VCSH SCT030 BKN060
      TEMPO 2712/2714 6SM -RA BR SCT019 BKN029
     FM271400 27020G30KT P6SM OVC080
     FM271800 27029G39KT P6SM SCT100=

USA.gov is the U.S. government's official web portal to all federal, state and local government web resources and services.